Atwater, IL

10:31 AM CDT on August 27, 2016 (GMT -0500)
North West side of town | | Change Station

Elev 640 ft 39.32 °N, 89.58 °W | Updated 4 minutes ago

Clear
Clear
82.8 °F
Feels Like 90 °F
N
3.2
Wind Variable Wind from West

Today
High -- | Low -- °F
--% Chance of Precip.
Yesterday
High -- | Low -- °F
Precip. -- in
Pressure 30.08 in
Visibility 10.0 miles
Clouds Clear
Heat Index 90 °F
Dew Point 76 °F
Humidity 79%
Rainfall 0.00 in
Snow Depth Not available.
6:22 AM 7:36 PM
Waning Crescent, 23% visible
METAR K3LF 271515Z AUTO 21005KT 10SM CLR 28/22 A3008 RMK AO2 T02810217
Pressure 30.08 in
Visibility 10.0 miles
Clouds Clear
Heat Index 90 °F
Dew Point 76 °F
Humidity 79%
Rainfall 0.00 in
Snow Depth Not available.
6:22 AM 7:36 PM
Waning Crescent, 23% visible
METAR K3LF 271515Z AUTO 21005KT 10SM CLR 28/22 A3008 RMK AO2 T02810217

10-Day Weather Forecast

Almanac

Astronomy

Aug. 27, 2016 Rise Set
Actual Time
Civil Twilight
Nautical Twilight
Astronomical Twilight
Moon
Length of Visible Light
Length of Day
Tomorrow will be .
, % of the Moon is Illuminated

Today's Extremes

State Highs State Lows

Community

WunderPhotos

Upload Photos

1,935,358 photos uploaded!

WunderBlog® & News

Nearby

Air Quality

  Air Quality AQ Index Pollutant
Not available.

Snow Depth

Station Depth Elevation

Earthquake Activity

City Distance Mag. Time & Date
Minimum magnitude displayed is 2.5.

Coastal Water Temperatures

Place Temperature

Stations

Nearby Weather Stations

Station Location Temp. Windchill Dew Point Humidity Wind Precip. Elev Updated Type
                   

Watches & Warnings

There are currently no watches in effect.